Etusivu
METAR-TAF:

METAR-TAF

Lentoasemat :

Iranshahr, Iran

Leveyspiiri: 27-12N, Pituuspiiri: 060-42E, korkeus merenpinnasta: 591 m

Tämänhetkinen sää

Tämä raportti tehtiin 1 tunti ja 2 minuuttia sitten, kello 08.00 UTC
Tuuli 8 kn lännestä/lounaasta
Lämpötila 31°C
Kosteus 17%
Ilmanpaine 1014 hPa
Näkyvyys: 5000 m
usvaa

METAR: OIZI 240800Z 25008KT 5000 HZ NSC 31/03 Q1014

Aika: 13:32 (09:02 UTC)


TAF: puuttuu

Säähavainnot ja -ennusteet yli 4000 lentoasemalta (METAR- ja TAF-raportit).

Käytössä olevat sääasemat on merkitty karttaan keltaisilla ja punaisilla pisteillä.

Aseta hiiri pisteen päälle nähdäksesi sääaseman nimen.

Klikkaa sitten nähdäksesi säähavainnot ja -ennusteet.

Kartan vaihtaminen: klikkaa mustalla rastilla varustettuja vihreitä pisteitä, niin voit zoomata sisään; viivalla varustettua vihreää pistettä, niin voit zoomata ulos tai vihreitä nuolia, niin pääset viereisille kartoille.


METAR-TAF: